createdAt,value
2019-03-12T00:02:19.462Z,100861.92
2019-03-12T00:04:48.945Z,100873.74
2019-03-12T00:07:18.244Z,100874.48
2019-03-12T00:09:47.480Z,100874.22
2019-03-12T00:12:16.977Z,100878.94
2019-03-12T00:14:46.217Z,100876.80
2019-03-12T00:17:15.792Z,100874.52
2019-03-12T00:19:45.027Z,100880.13
2019-03-12T00:22:14.248Z,100880.09
2019-03-12T00:24:43.440Z,100873.39
2019-03-12T00:27:13.512Z,100869.52
2019-03-12T00:29:42.743Z,100856.14
2019-03-12T00:32:12.310Z,100855.55
2019-03-12T00:34:42.167Z,100864.66
2019-03-12T00:37:13.691Z,100865.36
2019-03-12T00:39:42.895Z,100866.34
2019-03-12T00:42:12.169Z,100874.04
2019-03-12T00:44:41.407Z,100867.84
2019-03-12T00:47:10.874Z,100849.44
2019-03-12T00:49:40.395Z,100861.41
2019-03-12T00:52:28.816Z,100860.14
2019-03-12T00:57:53.731Z,100867.88
2019-03-12T01:00:23.001Z,100864.94
2019-03-12T01:02:52.535Z,100868.30
2019-03-12T01:05:22.054Z,100869.97
2019-03-12T01:07:51.613Z,100865.70
2019-03-12T01:10:20.822Z,100852.63
2019-03-12T01:12:50.050Z,100850.65
2019-03-12T01:15:19.542Z,100843.37
2019-03-12T01:17:48.756Z,100839.25
2019-03-12T01:20:17.957Z,100835.50
2019-03-12T01:22:47.185Z,100835.89
2019-03-12T01:25:16.461Z,100833.65
2019-03-12T01:27:45.953Z,100832.71
2019-03-12T01:30:55.358Z,100832.84
2019-03-12T01:33:24.858Z,100826.55
2019-03-12T01:35:54.122Z,100819.24
2019-03-12T01:38:23.333Z,100808.50
2019-03-12T01:40:52.523Z,100796.91
2019-03-12T01:43:21.736Z,100801.50
2019-03-12T01:45:50.956Z,100790.00
2019-03-12T01:48:20.208Z,100789.58
2019-03-12T01:50:49.393Z,100788.17
2019-03-12T01:53:18.639Z,100787.81
2019-03-12T01:55:47.838Z,100784.73
2019-03-12T01:58:17.051Z,100786.47
2019-03-12T02:00:46.277Z,100783.25
2019-03-12T02:03:15.513Z,100779.91
2019-03-12T02:05:44.733Z,100782.17
2019-03-12T02:08:13.968Z,100781.39
2019-03-12T02:10:43.177Z,100780.89
2019-03-12T02:13:12.425Z,100766.03
2019-03-12T02:15:41.880Z,100773.16
2019-03-12T02:18:11.111Z,100764.99
2019-03-12T02:20:40.305Z,100762.57
2019-03-12T02:23:09.521Z,100767.70
2019-03-12T02:25:38.715Z,100761.92
2019-03-12T02:28:08.224Z,100765.24
2019-03-12T02:30:37.435Z,100762.41
2019-03-12T02:33:06.747Z,100760.31
2019-03-12T02:35:35.954Z,100758.33
2019-03-12T02:38:05.241Z,100752.53
2019-03-12T02:40:34.409Z,100748.41
2019-03-12T02:43:03.621Z,100745.98
2019-03-12T02:45:32.839Z,100754.92
2019-03-12T02:48:02.070Z,100745.16
2019-03-12T02:50:31.249Z,100749.87
2019-03-12T02:53:00.475Z,100752.56
2019-03-12T02:55:29.667Z,100756.77
2019-03-12T02:57:58.881Z,100752.85
2019-03-12T03:00:28.063Z,100742.75
2019-03-12T03:02:57.274Z,100745.78
2019-03-12T03:05:26.610Z,100747.45
2019-03-12T03:08:01.556Z,100741.72
2019-03-12T03:10:30.817Z,100746.91
2019-03-12T03:13:00.049Z,100745.06
2019-03-12T03:18:23.736Z,100746.16
2019-03-12T03:20:52.933Z,100739.59
2019-03-12T03:23:22.154Z,100733.66
2019-03-12T03:25:51.334Z,100733.23
2019-03-12T03:28:20.884Z,100730.44
2019-03-12T03:30:50.108Z,100727.28
2019-03-12T03:33:19.322Z,100726.85
2019-03-12T03:35:48.524Z,100723.47
2019-03-12T03:38:17.720Z,100719.39
2019-03-12T03:40:46.941Z,100723.31
2019-03-12T03:43:16.149Z,100716.81
2019-03-12T03:45:45.396Z,100708.57
2019-03-12T03:48:14.616Z,100710.16
2019-03-12T03:50:43.869Z,100703.52
2019-03-12T03:53:13.065Z,100705.12
2019-03-12T03:55:42.302Z,100692.47
2019-03-12T03:58:11.521Z,100695.28
2019-03-12T04:00:40.753Z,100698.16
2019-03-12T04:03:09.959Z,100697.34
2019-03-12T04:05:39.205Z,100690.00
2019-03-12T04:08:08.401Z,100687.70
2019-03-12T04:10:37.636Z,100683.81
2019-03-12T04:13:06.838Z,100679.02
2019-03-12T04:15:36.339Z,100677.76
2019-03-12T04:18:05.520Z,100682.81
2019-03-12T04:20:34.748Z,100676.22
2019-03-12T04:23:03.965Z,100670.75
2019-03-12T04:25:33.196Z,100668.75
2019-03-12T04:28:02.415Z,100669.66
2019-03-12T04:30:31.641Z,100666.55
2019-03-12T04:33:00.837Z,100667.05
2019-03-12T04:35:30.169Z,100664.11
2019-03-12T04:37:59.442Z,100657.34
2019-03-12T04:40:28.633Z,100659.95
2019-03-12T04:42:57.835Z,100653.56
2019-03-12T04:45:27.094Z,100654.66
2019-03-12T04:47:56.277Z,100646.75
2019-03-12T04:50:25.502Z,100643.73
2019-03-12T04:52:54.701Z,100637.03
2019-03-12T04:55:23.926Z,100642.53
2019-03-12T04:57:53.120Z,100637.55
2019-03-12T05:00:22.348Z,100629.63
2019-03-12T05:02:51.561Z,100632.36
2019-03-12T05:05:20.825Z,100621.09
2019-03-12T05:07:50.037Z,100614.39
2019-03-12T05:10:19.292Z,100619.33
2019-03-12T05:12:48.503Z,100615.23
2019-03-12T05:15:17.734Z,100606.56
2019-03-12T05:17:47.466Z,100606.72
2019-03-12T05:20:16.690Z,100602.58
2019-03-12T05:22:46.056Z,100590.89
2019-03-12T05:25:15.439Z,100585.16
2019-03-12T05:27:44.777Z,100586.62
2019-03-12T05:30:15.707Z,100582.56
2019-03-12T05:32:45.218Z,100572.88
2019-03-12T05:35:14.531Z,100573.96
2019-03-12T05:37:43.887Z,100576.89
2019-03-12T05:40:13.117Z,100577.13
2019-03-12T05:42:42.353Z,100570.93
2019-03-12T05:45:12.174Z,100574.16
2019-03-12T05:47:41.412Z,100573.14
2019-03-12T05:50:11.748Z,100568.52
2019-03-12T05:52:41.349Z,100572.48
2019-03-12T05:55:50.012Z,100562.77
2019-03-12T05:58:19.240Z,100565.33
2019-03-12T06:03:38.290Z,100541.70
2019-03-12T06:06:07.525Z,100531.89
2019-03-12T06:08:36.762Z,100530.44
2019-03-12T06:11:06.390Z,100522.98
2019-03-12T06:13:35.895Z,100521.05
2019-03-12T06:16:05.118Z,100518.66
2019-03-12T06:18:34.622Z,100513.72
2019-03-12T06:21:03.817Z,100514.45
2019-03-12T06:23:33.067Z,100512.13
2019-03-12T06:26:02.268Z,100509.67
2019-03-12T06:28:31.519Z,100507.91
2019-03-12T06:31:20.688Z,100511.75
2019-03-12T06:34:02.711Z,100500.30
2019-03-12T06:36:50.829Z,100509.70
2019-03-12T06:39:27.693Z,100497.14
2019-03-12T06:42:54.229Z,100498.05
2019-03-12T06:45:42.399Z,100497.98
2019-03-12T06:48:17.374Z,100486.42
2019-03-12T06:51:05.476Z,100480.63
2019-03-12T06:53:53.642Z,100476.94
2019-03-12T06:56:41.779Z,100477.55
2019-03-12T06:59:29.954Z,100468.38
2019-03-12T07:02:06.950Z,100463.33
2019-03-12T07:04:55.122Z,100453.19
2019-03-12T07:07:45.926Z,100438.81
2019-03-12T07:10:33.832Z,100445.95
2019-03-12T07:13:21.980Z,100438.61
2019-03-12T07:16:10.149Z,100439.73
2019-03-12T07:18:58.344Z,100431.03
2019-03-12T07:21:46.456Z,100424.83
2019-03-12T07:24:34.597Z,100420.57
2019-03-12T07:27:42.157Z,100413.80
2019-03-12T07:30:30.432Z,100408.40
2019-03-12T07:33:18.614Z,100398.32
2019-03-12T07:36:06.746Z,100396.87
2019-03-12T07:38:44.155Z,100392.15
2019-03-12T07:41:32.989Z,100396.87
2019-03-12T07:44:12.467Z,100398.55
2019-03-12T07:47:00.617Z,100399.02
2019-03-12T07:49:48.857Z,100399.80
2019-03-12T07:52:37.003Z,100400.32
2019-03-12T07:55:25.257Z,100395.86
2019-03-12T07:58:13.391Z,100390.88
2019-03-12T08:01:00.949Z,100397.34
2019-03-12T08:03:49.108Z,100402.20
2019-03-12T08:06:37.333Z,100383.48
2019-03-12T08:09:46.570Z,100383.42
2019-03-12T08:12:34.195Z,100385.41
2019-03-12T08:18:19.253Z,100379.16
2019-03-12T08:21:07.894Z,100381.97
2019-03-12T08:23:43.485Z,100372.28
2019-03-12T08:26:32.439Z,100363.30
2019-03-12T08:29:07.365Z,100366.20
2019-03-12T08:40:13.108Z,100351.09
2019-03-12T08:45:52.399Z,100342.56
2019-03-12T08:48:40.544Z,100348.80
2019-03-12T08:51:28.812Z,100334.88
2019-03-12T08:54:16.943Z,100330.20
2019-03-12T08:57:05.838Z,100320.64
2019-03-12T09:02:50.618Z,100316.72
2019-03-12T09:05:38.801Z,100312.34
2019-03-12T09:08:46.318Z,100313.99
2019-03-12T09:11:34.528Z,100307.75
2019-03-12T09:14:22.657Z,100306.16
2019-03-12T09:17:11.140Z,100290.86
2019-03-12T09:19:59.373Z,100285.23
2019-03-12T09:22:43.429Z,100278.59
2019-03-12T09:25:32.174Z,100270.84
2019-03-12T09:28:20.431Z,100285.45
2019-03-12T09:31:08.614Z,100272.53
2019-03-12T09:33:57.347Z,100273.34
2019-03-12T09:36:45.591Z,100279.44
2019-03-12T09:39:33.845Z,100280.05
2019-03-12T09:42:22.306Z,100276.66
2019-03-12T09:45:10.947Z,100271.53
2019-03-12T09:48:00.799Z,100263.69
2019-03-12T09:50:49.235Z,100261.23
2019-03-12T09:53:58.142Z,100259.51
2019-03-12T09:57:05.684Z,100262.81
2019-03-12T09:59:53.891Z,100253.59
2019-03-12T10:02:43.010Z,100253.16
2019-03-12T10:08:41.859Z,100244.73
2019-03-12T10:14:58.584Z,100223.91
2019-03-12T10:18:06.846Z,100225.92
2019-03-12T10:21:04.337Z,100230.23
2019-03-12T10:26:48.265Z,100201.08
2019-03-12T10:32:26.244Z,100185.45
2019-03-12T10:35:03.158Z,100190.14
2019-03-12T10:37:51.322Z,100169.80
2019-03-12T10:40:39.816Z,100166.92
2019-03-12T10:43:28.303Z,100154.72
2019-03-12T10:46:04.364Z,100141.25
2019-03-12T10:48:35.327Z,100144.14
2019-03-12T10:51:13.697Z,100142.20
2019-03-12T10:53:44.162Z,100120.60
2019-03-12T10:56:13.475Z,100120.00
2019-03-12T10:58:44.350Z,100123.09
2019-03-12T11:01:15.295Z,100108.34
2019-03-12T11:03:48.350Z,100102.42
2019-03-12T11:06:18.936Z,100102.75
2019-03-12T11:23:06.365Z,100077.48
2019-03-12T11:28:30.618Z,100090.43
2019-03-12T11:31:20.018Z,100061.26
2019-03-12T11:36:50.551Z,100058.42
2019-03-12T11:39:20.081Z,100056.09
2019-03-12T11:41:49.499Z,100049.91
2019-03-12T11:48:49.144Z,100051.97
2019-03-12T11:55:04.123Z,100033.70
2019-03-12T11:57:33.451Z,100028.88
2019-03-12T12:00:40.601Z,100006.19
2019-03-12T12:12:43.534Z,99976.77
2019-03-12T12:15:13.469Z,99965.27
2019-03-12T12:18:15.917Z,99954.50
2019-03-12T12:34:16.693Z,99913.77
2019-03-12T12:37:28.812Z,99902.31
2019-03-12T12:39:58.146Z,99900.05
2019-03-12T12:47:41.096Z,99862.98
2019-03-12T13:12:38.429Z,99772.39
2019-03-12T13:23:15.192Z,99739.84
2019-03-12T13:25:44.793Z,99731.69
2019-03-12T13:28:14.226Z,99722.43
2019-03-12T13:52:12.041Z,99655.12
2019-03-12T13:54:43.428Z,99648.14
2019-03-12T13:57:12.890Z,99639.07
2019-03-12T13:59:42.271Z,99626.17
2019-03-12T14:02:12.065Z,99619.34
2019-03-12T14:04:41.379Z,99603.17
2019-03-12T14:10:00.419Z,99580.52
2019-03-12T14:12:29.876Z,99576.38
2019-03-12T14:14:59.158Z,99568.03
2019-03-12T14:17:29.092Z,99569.08
2019-03-12T14:20:37.758Z,99551.44
2019-03-12T14:23:07.111Z,99547.95
2019-03-12T14:28:32.113Z,99526.03
2019-03-12T14:31:01.368Z,99515.74
2019-03-12T14:33:30.889Z,99504.61
2019-03-12T14:36:00.272Z,99496.23
2019-03-12T14:38:29.516Z,99481.91
2019-03-12T14:40:59.128Z,99472.92
2019-03-12T14:43:28.564Z,99460.47
2019-03-12T14:45:57.769Z,99459.09
2019-03-12T14:54:23.273Z,99446.61
2019-03-12T14:56:52.514Z,99433.61
2019-03-12T14:59:21.772Z,99437.39
2019-03-12T15:01:51.435Z,99434.94
2019-03-12T15:04:20.682Z,99427.36
2019-03-12T15:06:50.114Z,99421.13
2019-03-12T15:09:19.603Z,99418.67
2019-03-12T15:14:45.241Z,99387.27
2019-03-12T15:17:14.483Z,99383.22
2019-03-12T15:19:43.719Z,99380.78
2019-03-12T15:22:13.020Z,99366.98
2019-03-12T15:24:42.229Z,99360.75
2019-03-12T15:27:11.478Z,99349.94
2019-03-12T15:29:40.683Z,99341.55
2019-03-12T15:32:10.258Z,99335.31
2019-03-12T15:34:39.511Z,99324.20
2019-03-12T15:37:08.810Z,99319.28
2019-03-12T15:39:38.111Z,99290.05
2019-03-12T15:42:07.342Z,99292.74
2019-03-12T15:44:36.619Z,99286.77
2019-03-12T15:47:08.820Z,99275.41
2019-03-12T15:49:37.877Z,99264.30
2019-03-12T15:52:08.735Z,99257.24
2019-03-12T15:54:38.068Z,99253.73
2019-03-12T15:57:07.472Z,99239.41
2019-03-12T15:59:37.587Z,99233.20
2019-03-12T16:02:06.791Z,99213.70
2019-03-12T16:04:36.049Z,99206.64
2019-03-12T16:07:05.291Z,99212.05
2019-03-12T16:09:34.607Z,99186.33
2019-03-12T16:12:03.849Z,99187.16
2019-03-12T16:14:33.128Z,99169.28
2019-03-12T16:17:02.316Z,99173.91
2019-03-12T16:19:31.627Z,99175.78
2019-03-12T16:22:00.935Z,99172.54
2019-03-12T16:24:30.658Z,99165.75
2019-03-12T16:27:03.141Z,99157.09
2019-03-12T16:32:07.067Z,99156.81
2019-03-12T16:34:55.497Z,99142.22
2019-03-12T16:37:26.659Z,99131.41
2019-03-12T16:40:14.949Z,99111.94
2019-03-12T16:43:03.536Z,99101.93
2019-03-12T16:45:32.822Z,99103.82
2019-03-12T16:48:02.079Z,99089.48
2019-03-12T16:51:16.414Z,99087.32
2019-03-12T16:53:45.797Z,99084.63
2019-03-12T16:56:15.072Z,99087.30
2019-03-12T16:58:44.421Z,99074.60
2019-03-12T17:01:13.729Z,99075.41
2019-03-12T17:03:43.023Z,99058.91
2019-03-12T17:06:13.241Z,99054.84
2019-03-12T17:11:53.869Z,99038.09
2019-03-12T17:17:15.331Z,99039.72
2019-03-12T17:19:44.664Z,99016.17
2019-03-12T17:22:13.931Z,99018.06
2019-03-12T17:24:43.597Z,99018.86
2019-03-12T17:27:12.916Z,99014.57
2019-03-12T17:32:30.457Z,98996.69
2019-03-12T17:35:20.499Z,98989.14
2019-03-12T17:37:49.817Z,98975.89
2019-03-12T17:40:20.181Z,98976.42
2019-03-12T17:42:49.470Z,98970.77
2019-03-12T17:45:20.003Z,98945.04
2019-03-12T17:47:49.303Z,98930.70
2019-03-12T17:50:18.540Z,98927.21
2019-03-12T17:53:07.462Z,98926.67
2019-03-12T17:55:36.690Z,98915.05
2019-03-12T17:58:06.538Z,98886.15
2019-03-12T18:03:25.882Z,98893.16
2019-03-12T18:05:55.276Z,98875.30
2019-03-12T18:08:24.679Z,98893.44
2019-03-12T18:10:54.462Z,98876.41
2019-03-12T18:13:43.662Z,98873.70
2019-03-12T18:16:13.048Z,98851.01
2019-03-12T18:18:44.434Z,98865.83
2019-03-12T18:24:47.761Z,98857.66
2019-03-12T18:27:17.150Z,98823.62
2019-03-12T18:29:49.100Z,98811.22
2019-03-12T18:37:50.860Z,98786.66
2019-03-12T18:40:20.370Z,98795.34
2019-03-12T18:42:49.873Z,98789.91
2019-03-12T18:45:44.156Z,98799.69
2019-03-12T18:48:13.662Z,98799.66
2019-03-12T18:50:42.892Z,98792.02
2019-03-12T18:53:12.205Z,98781.48
2019-03-12T18:56:02.184Z,98777.33
2019-03-12T18:58:31.436Z,98778.67
2019-03-12T19:01:12.320Z,98774.87
2019-03-12T19:03:41.569Z,98768.95
2019-03-12T19:06:10.834Z,98759.73
2019-03-12T19:08:59.455Z,98760.78
2019-03-12T19:11:28.640Z,98753.30
2019-03-12T19:13:58.302Z,98753.30
2019-03-12T19:16:27.896Z,98738.09
2019-03-12T19:18:57.415Z,98746.75
2019-03-12T19:21:26.742Z,98749.14
2019-03-12T19:23:56.001Z,98741.85
2019-03-12T19:26:25.295Z,98725.55
2019-03-12T19:28:54.572Z,98723.67
2019-03-12T19:31:42.719Z,98729.30
2019-03-12T19:36:51.572Z,98717.89
2019-03-12T19:39:21.258Z,98712.47
2019-03-12T19:41:50.856Z,98705.22
2019-03-12T19:44:20.105Z,98706.03
2019-03-12T19:46:49.387Z,98694.55
2019-03-12T19:49:18.697Z,98691.88
2019-03-12T19:51:47.925Z,98692.59
2019-03-12T19:54:17.636Z,98699.95
2019-03-12T19:56:46.952Z,98690.16
2019-03-12T19:59:16.674Z,98709.95
2019-03-12T20:01:46.733Z,98684.16
2019-03-12T20:04:16.258Z,98706.63
2019-03-12T20:06:45.619Z,98702.54
2019-03-12T20:09:56.121Z,98701.98
2019-03-12T20:13:03.402Z,98704.19
2019-03-12T20:16:11.018Z,98694.22
2019-03-12T20:19:18.651Z,98701.52
2019-03-12T20:22:35.461Z,98692.10
2019-03-12T20:25:42.900Z,98707.31
2019-03-12T20:28:50.271Z,98698.66
2019-03-12T20:31:57.757Z,98706.80
2019-03-12T20:35:05.412Z,98709.28
2019-03-12T20:38:13.117Z,98718.23
2019-03-12T20:41:20.737Z,98712.32
2019-03-12T20:44:28.054Z,98713.42
2019-03-12T20:47:35.538Z,98704.22
2019-03-12T20:50:42.864Z,98704.80
2019-03-12T20:54:00.469Z,98691.02
2019-03-12T20:57:07.762Z,98695.08
2019-03-12T21:00:15.306Z,98701.83
2019-03-12T21:03:24.918Z,98707.51
2019-03-12T21:06:40.892Z,98718.06
2019-03-12T21:09:48.225Z,98709.71
2019-03-12T21:12:57.175Z,98713.79
2019-03-12T21:16:04.471Z,98709.31
2019-03-12T21:19:12.016Z,98686.74
2019-03-12T21:22:19.888Z,98618.25
2019-03-12T21:25:27.171Z,98645.86
2019-03-12T21:28:53.705Z,98649.11
2019-03-12T21:31:23.405Z,98687.86
2019-03-12T21:33:52.618Z,98663.82
2019-03-12T21:36:22.991Z,98717.58
2019-03-12T21:38:52.237Z,98707.47
2019-03-12T21:41:21.933Z,98752.08
2019-03-12T21:43:51.768Z,98748.80
2019-03-12T21:46:21.749Z,98766.72
2019-03-12T21:48:51.697Z,98768.28
2019-03-12T21:51:20.982Z,98786.22
2019-03-12T21:53:50.488Z,98788.85
2019-03-12T21:56:38.807Z,98815.42
2019-03-12T21:59:08.002Z,98813.53
2019-03-12T22:01:37.249Z,98753.28
2019-03-12T22:04:06.566Z,98822.62
2019-03-12T22:06:35.829Z,98825.86
2019-03-12T22:12:17.702Z,98820.72
2019-03-12T22:14:47.292Z,98809.38
2019-03-12T22:22:46.928Z,98854.66
2019-03-12T22:25:16.367Z,98857.35
2019-03-12T22:27:45.928Z,98861.72
2019-03-12T22:30:18.056Z,98860.17
2019-03-12T22:32:47.428Z,98857.78
2019-03-12T22:35:16.703Z,98881.72
2019-03-12T22:37:45.915Z,98886.53
2019-03-12T22:40:15.237Z,98887.32
2019-03-12T22:42:44.564Z,98885.16
2019-03-12T22:45:16.462Z,98873.09
2019-03-12T22:47:46.025Z,98896.21
2019-03-12T22:50:15.515Z,98866.41
2019-03-12T22:52:48.125Z,98864.01
2019-03-12T22:55:17.502Z,98882.30
2019-03-12T22:57:47.084Z,98862.43
2019-03-12T23:00:55.892Z,98897.95
2019-03-12T23:03:25.110Z,98899.59
2019-03-12T23:05:54.356Z,98896.91
2019-03-12T23:08:42.686Z,98903.39
2019-03-12T23:14:20.602Z,98918.42
2019-03-12T23:16:50.187Z,98882.80
2019-03-12T23:19:19.719Z,98927.92
2019-03-12T23:21:48.904Z,98935.65
2019-03-12T23:24:18.144Z,98940.62
2019-03-12T23:26:47.350Z,98912.69
2019-03-12T23:29:16.580Z,98942.22
2019-03-12T23:31:46.049Z,98941.63
2019-03-12T23:34:15.274Z,98946.95
2019-03-12T23:36:44.599Z,98955.68
2019-03-12T23:39:16.212Z,98961.70
2019-03-12T23:41:45.476Z,98956.33
2019-03-12T23:44:14.824Z,98940.60
2019-03-12T23:46:44.036Z,98987.06
2019-03-12T23:49:13.247Z,98982.94
2019-03-12T23:51:42.457Z,98970.25
2019-03-12T23:54:51.360Z,98994.61
2019-03-12T23:57:20.821Z,98994.55
2019-03-12T23:59:50.410Z,98994.78
